createdAt,value
2018-04-12T00:01:14.721Z,65.40
2018-04-12T00:04:19.463Z,62.60
2018-04-12T00:07:24.197Z,65.80
2018-04-12T00:10:28.515Z,57.87
2018-04-12T00:13:32.428Z,64.93
2018-04-12T00:16:37.035Z,56.97
2018-04-12T00:19:40.888Z,60.63
2018-04-12T00:22:44.784Z,55.77
2018-04-12T00:25:49.067Z,51.53
2018-04-12T00:28:53.701Z,55.60
2018-04-12T00:31:58.367Z,60.43
2018-04-12T00:35:03.104Z,58.03
2018-04-12T00:38:07.794Z,56.87
2018-04-12T00:41:12.164Z,55.67
2018-04-12T00:44:16.908Z,56.13
2018-04-12T00:47:21.075Z,62.53
2018-04-12T00:50:25.284Z,56.27
2018-04-12T00:53:47.411Z,58.50
2018-04-12T00:56:51.755Z,62.30
2018-04-12T00:59:55.720Z,59.37
2018-04-12T01:02:59.592Z,63.60
2018-04-12T01:06:03.885Z,59.10
2018-04-12T01:09:07.845Z,59.67
2018-04-12T01:12:12.795Z,65.40
2018-04-12T01:15:16.667Z,69.20
2018-04-12T01:18:20.579Z,63.60
2018-04-12T01:21:25.175Z,72.07
2018-04-12T01:24:29.126Z,66.23
2018-04-12T01:27:33.725Z,71.63
2018-04-12T01:30:38.042Z,65.47
2018-04-12T01:33:42.383Z,66.53
2018-04-12T01:36:46.299Z,72.77
2018-04-12T01:39:50.183Z,74.70
2018-04-12T01:42:54.124Z,68.17
2018-04-12T01:45:58.707Z,71.97
2018-04-12T01:49:02.595Z,70.43
2018-04-12T01:52:06.471Z,74.17
2018-04-12T01:55:11.043Z,76.97
2018-04-12T01:58:15.307Z,78.40
2018-04-12T02:01:19.218Z,67.90
2018-04-12T02:04:23.961Z,71.67
2018-04-12T02:07:27.849Z,76.47
2018-04-12T02:10:32.450Z,78.43
2018-04-12T02:13:37.510Z,75.70
2018-04-12T02:16:42.483Z,77.73
2018-04-12T02:19:47.993Z,73.60
2018-04-12T02:22:53.357Z,77.40
2018-04-12T02:25:57.246Z,70.93
2018-04-12T02:29:01.223Z,77.07
2018-04-12T02:32:05.496Z,74.33
2018-04-12T02:35:09.823Z,71.63
2018-04-12T02:38:14.421Z,79.33
2018-04-12T02:41:19.083Z,76.03
2018-04-12T02:44:22.967Z,80.30
2018-04-12T02:47:27.571Z,75.80
2018-04-12T02:50:31.416Z,80.70
2018-04-12T02:53:35.525Z,82.00
2018-04-12T02:56:40.568Z,84.80
2018-04-12T02:59:44.380Z,85.83
2018-04-12T03:02:48.296Z,84.83
2018-04-12T03:05:52.208Z,93.80
2018-04-12T03:08:56.129Z,91.97
2018-04-12T03:12:00.095Z,99.00
2018-04-12T03:15:03.966Z,94.87
2018-04-12T03:18:07.879Z,90.60
2018-04-12T03:21:12.242Z,88.83
2018-04-12T03:24:16.577Z,87.63
2018-04-12T03:27:21.212Z,95.80
2018-04-12T03:30:25.666Z,95.33
2018-04-12T03:33:30.242Z,92.13
2018-04-12T03:36:35.266Z,90.67
2018-04-12T03:39:39.937Z,100.77
2018-04-12T03:42:45.032Z,102.83
2018-04-12T03:45:48.975Z,111.07
2018-04-12T03:48:55.263Z,108.50
2018-04-12T03:51:59.210Z,121.53
2018-04-12T03:55:03.651Z,113.83
2018-04-12T03:58:07.897Z,117.83
2018-04-12T04:01:12.486Z,116.70
2018-04-12T04:04:16.713Z,125.17
2018-04-12T04:07:21.081Z,120.97
2018-04-12T04:10:25.940Z,133.00
2018-04-12T04:13:33.495Z,121.73
2018-04-12T04:16:55.042Z,121.50
2018-04-12T04:20:17.742Z,114.33
2018-04-12T04:23:21.966Z,112.83
2018-04-12T04:26:25.811Z,114.63
2018-04-12T04:29:29.658Z,114.10
2018-04-12T04:32:33.919Z,118.77
2018-04-12T04:35:43.790Z,107.97
2018-04-12T04:38:54.563Z,118.17
2018-04-12T04:42:04.258Z,109.80
2018-04-12T04:45:14.201Z,107.03
2018-04-12T04:48:24.004Z,111.53
2018-04-12T04:51:33.824Z,110.23
2018-04-12T04:54:43.722Z,98.57
2018-04-12T04:57:53.116Z,105.83
2018-04-12T05:01:02.892Z,106.30
2018-04-12T05:04:12.291Z,109.47
2018-04-12T05:07:21.712Z,112.23
2018-04-12T05:10:31.098Z,105.33
2018-04-12T05:13:40.527Z,118.90
2018-04-12T05:16:50.933Z,101.77
2018-04-12T05:20:00.390Z,107.70
2018-04-12T05:23:09.904Z,107.70
2018-04-12T05:26:19.858Z,102.13
2018-04-12T05:29:29.941Z,98.50
2018-04-12T05:32:39.679Z,106.73
2018-04-12T05:35:49.982Z,100.83
2018-04-12T05:38:59.727Z,106.60
2018-04-12T05:42:10.050Z,102.40
2018-04-12T05:45:20.101Z,97.17
2018-04-12T05:48:29.395Z,90.47
2018-04-12T05:51:39.531Z,87.40
2018-04-12T05:54:48.951Z,88.67
2018-04-12T05:57:59.196Z,79.73
2018-04-12T06:01:09.035Z,84.27
2018-04-12T06:04:18.479Z,81.77
2018-04-12T06:07:28.328Z,85.03
2018-04-12T06:10:37.647Z,77.70
2018-04-12T06:13:47.879Z,82.70
2018-04-12T06:16:57.313Z,85.27
2018-04-12T06:20:06.810Z,82.80
2018-04-12T06:23:16.231Z,76.60
2018-04-12T06:26:25.557Z,86.30
2018-04-12T06:29:34.923Z,80.30
2018-04-12T06:32:45.152Z,79.07
2018-04-12T06:35:54.606Z,82.07
2018-04-12T06:39:05.023Z,77.50
2018-04-12T06:42:14.565Z,80.07
2018-04-12T06:45:24.927Z,77.97
2018-04-12T06:48:34.465Z,73.57
2018-04-12T06:51:45.378Z,74.83
2018-04-12T06:54:55.071Z,74.30
2018-04-12T06:58:04.519Z,73.50
2018-04-12T07:01:14.915Z,77.67
2018-04-12T07:04:25.278Z,70.47
2018-04-12T07:07:35.636Z,69.70
2018-04-12T07:10:45.130Z,76.00
2018-04-12T07:13:54.570Z,63.57
2018-04-12T07:17:04.669Z,59.23
2018-04-12T07:20:13.987Z,67.03
2018-04-12T07:23:24.948Z,64.13
2018-04-12T07:26:38.728Z,66.60
2018-04-12T07:29:48.060Z,59.63
2018-04-12T07:32:57.531Z,63.77
2018-04-12T07:36:07.432Z,50.73
2018-04-12T07:39:17.591Z,55.60
2018-04-12T07:42:27.407Z,58.13
2018-04-12T07:45:37.076Z,54.90
2018-04-12T07:48:47.147Z,49.40
2018-04-12T07:51:56.731Z,54.73
2018-04-12T07:55:06.890Z,52.53
2018-04-12T07:58:17.008Z,49.63
2018-04-12T08:01:26.351Z,53.50
2018-04-12T08:04:36.664Z,54.30
2018-04-12T08:07:46.529Z,49.80
2018-04-12T08:10:55.883Z,46.53
2018-04-12T08:14:06.060Z,48.90
2018-04-12T08:17:16.667Z,45.80
2018-04-12T08:20:26.958Z,49.87
2018-04-12T08:23:36.420Z,45.40
2018-04-12T08:26:46.135Z,48.40
2018-04-12T08:29:55.896Z,45.37
2018-04-12T08:33:06.771Z,41.73
2018-04-12T08:36:16.211Z,44.33
2018-04-12T08:39:25.537Z,41.63
2018-04-12T08:42:34.996Z,46.23
2018-04-12T08:45:44.583Z,43.87
2018-04-12T08:48:53.964Z,38.83
2018-04-12T08:52:04.295Z,41.00
2018-04-12T08:55:13.543Z,43.27
2018-04-12T08:58:22.977Z,42.37
2018-04-12T09:01:32.372Z,38.60
2018-04-12T09:04:41.807Z,41.40
2018-04-12T09:07:51.237Z,36.07
2018-04-12T09:11:01.429Z,43.67
2018-04-12T09:14:10.753Z,38.33
2018-04-12T09:17:20.927Z,40.60
2018-04-12T09:20:31.155Z,41.73
2018-04-12T09:23:40.844Z,39.50
2018-04-12T09:26:50.888Z,39.57
2018-04-12T09:30:00.879Z,37.33
2018-04-12T09:33:10.657Z,35.13
2018-04-12T09:36:20.924Z,36.50
2018-04-12T09:39:30.992Z,36.53
2018-04-12T09:42:40.290Z,36.83
2018-04-12T09:45:49.725Z,33.57
2018-04-12T09:48:59.221Z,33.67
2018-04-12T09:52:09.011Z,36.63
2018-04-12T09:55:19.269Z,37.47
2018-04-12T09:58:28.567Z,36.33
2018-04-12T10:01:43.491Z,41.97
2018-04-12T10:04:55.354Z,33.87
2018-04-12T10:08:10.310Z,34.17
2018-04-12T10:11:20.396Z,34.70
2018-04-12T10:14:30.508Z,34.00
2018-04-12T10:17:40.223Z,29.60
2018-04-12T10:20:49.523Z,29.93
2018-04-12T10:23:59.040Z,28.73
2018-04-12T10:27:08.903Z,28.27
2018-04-12T10:30:19.152Z,29.20
2018-04-12T10:33:28.636Z,24.33
2018-04-12T10:36:38.751Z,28.60
2018-04-12T10:39:48.081Z,27.55
2018-04-12T10:42:58.277Z,25.40
2018-04-12T10:46:07.589Z,28.42
2018-04-12T10:49:17.678Z,31.03
2018-04-12T10:52:27.200Z,29.00
2018-04-12T10:55:36.612Z,27.13
2018-04-12T10:58:45.943Z,28.27
2018-04-12T11:01:56.056Z,26.42
2018-04-12T11:05:05.352Z,29.48
2018-04-12T11:08:15.583Z,26.45
2018-04-12T11:11:24.949Z,28.00
2018-04-12T11:14:34.399Z,29.20
2018-04-12T11:17:43.892Z,24.58
2018-04-12T11:20:53.179Z,33.67
2018-04-12T11:24:02.524Z,33.10
2018-04-12T11:27:11.864Z,32.00
2018-04-12T11:30:21.317Z,29.92
2018-04-12T11:33:30.680Z,28.90
2018-04-12T11:36:40.789Z,30.55
2018-04-12T11:39:51.424Z,25.27
2018-04-12T11:43:00.751Z,32.85
2018-04-12T11:46:10.995Z,35.70
2018-04-12T11:49:20.215Z,29.67
2018-04-12T11:52:30.043Z,28.87
2018-04-12T11:55:40.234Z,32.03
2018-04-12T11:58:49.647Z,31.62
2018-04-12T12:01:59.508Z,29.73
2018-04-12T12:05:08.892Z,31.58
2018-04-12T12:08:18.350Z,39.50
2018-04-12T12:11:27.811Z,37.45
2018-04-12T12:14:37.107Z,32.35
2018-04-12T12:17:47.285Z,36.80
2018-04-12T12:20:56.582Z,41.63
2018-04-12T12:24:06.819Z,32.92
2018-04-12T12:27:16.888Z,33.33
2018-04-12T12:30:26.720Z,40.75
2018-04-12T12:33:36.509Z,37.83
2018-04-12T12:36:45.800Z,40.72
2018-04-12T12:39:55.228Z,40.85
2018-04-12T12:43:04.751Z,42.60
2018-04-12T12:46:14.191Z,41.42
2018-04-12T12:49:23.550Z,38.10
2018-04-12T12:52:33.687Z,44.65
2018-04-12T12:55:44.432Z,38.58
2018-04-12T12:58:53.716Z,40.17
2018-04-12T13:02:03.192Z,38.60
2018-04-12T13:05:13.157Z,37.03
2018-04-12T13:08:23.289Z,43.03
2018-04-12T13:11:32.831Z,41.45
2018-04-12T13:14:42.307Z,38.03
2018-04-12T13:17:51.817Z,41.70
2018-04-12T13:21:01.691Z,39.03
2018-04-12T13:24:11.915Z,40.38
2018-04-12T13:27:21.299Z,39.45
2018-04-12T13:30:30.639Z,40.83
2018-04-12T13:33:40.284Z,37.05
2018-04-12T13:36:49.640Z,39.55
2018-04-12T13:39:58.956Z,40.67
2018-04-12T13:43:08.700Z,41.80
2018-04-12T13:46:18.020Z,40.50
2018-04-12T13:49:28.287Z,40.47
2018-04-12T13:52:48.122Z,38.78
2018-04-12T13:55:58.419Z,41.00
2018-04-12T13:59:07.773Z,43.28
2018-04-12T14:02:21.881Z,41.42
2018-04-12T14:05:31.222Z,39.55
2018-04-12T14:08:40.613Z,42.40
2018-04-12T14:11:50.420Z,38.45
2018-04-12T14:15:00.273Z,49.50
2018-04-12T14:18:09.844Z,42.00
2018-04-12T14:21:19.936Z,43.87
2018-04-12T14:24:30.149Z,44.17
2018-04-12T14:27:43.935Z,42.25
2018-04-12T14:30:53.277Z,42.00
2018-04-12T14:34:02.737Z,41.40
2018-04-12T14:37:12.009Z,42.80
2018-04-12T14:40:22.287Z,38.58
2018-04-12T14:43:32.384Z,42.53
2018-04-12T14:46:41.747Z,39.38
2018-04-12T14:49:51.203Z,40.45
2018-04-12T14:53:05.131Z,39.08
2018-04-12T14:56:15.470Z,38.33
2018-04-12T14:59:25.971Z,44.10
2018-04-12T15:02:36.255Z,44.05
2018-04-12T15:05:45.651Z,44.33
2018-04-12T15:08:55.002Z,48.63
2018-04-12T15:12:04.356Z,46.97
2018-04-12T15:15:13.795Z,41.88
2018-04-12T15:18:23.155Z,40.88
2018-04-12T15:21:33.442Z,43.25
2018-04-12T15:24:43.203Z,44.45
2018-04-12T15:27:53.100Z,54.33
2018-04-12T15:31:02.885Z,47.28
2018-04-12T15:34:13.707Z,46.97
2018-04-12T15:37:22.996Z,43.83
2018-04-12T15:40:32.519Z,50.65
2018-04-12T15:43:42.739Z,51.15
2018-04-12T15:46:52.168Z,53.03
2018-04-12T15:50:02.074Z,51.22
2018-04-12T15:53:11.505Z,52.70
2018-04-12T15:56:21.726Z,49.28
2018-04-12T15:59:31.593Z,48.10
2018-04-12T16:02:40.939Z,46.83
2018-04-12T16:05:50.805Z,46.33
2018-04-12T16:09:00.155Z,50.67
2018-04-12T16:12:09.471Z,48.87
2018-04-12T16:15:18.897Z,45.77
2018-04-12T16:18:28.200Z,57.30
2018-04-12T16:21:37.879Z,49.17
2018-04-12T16:24:47.700Z,51.27
2018-04-12T16:27:57.772Z,49.23
2018-04-12T16:31:07.301Z,54.63
2018-04-12T16:34:17.155Z,57.97
2018-04-12T16:37:28.115Z,61.77
2018-04-12T16:40:37.643Z,54.93
2018-04-12T16:43:47.475Z,53.97
2018-04-12T16:46:56.817Z,55.73
2018-04-12T16:50:06.639Z,48.90
2018-04-12T16:53:16.032Z,55.77
2018-04-12T16:56:25.525Z,55.53
2018-04-12T16:59:35.679Z,53.57
2018-04-12T17:02:45.032Z,57.97
2018-04-12T17:05:54.388Z,49.60
2018-04-12T17:09:04.225Z,70.57
2018-04-12T17:12:13.617Z,74.50
2018-04-12T17:15:23.819Z,54.27
2018-04-12T17:18:33.156Z,43.17
2018-04-12T17:21:44.110Z,49.03
2018-04-12T17:24:53.465Z,56.93
2018-04-12T17:28:03.007Z,65.33
2018-04-12T17:31:13.243Z,56.43
2018-04-12T17:34:22.674Z,63.93
2018-04-12T17:37:32.909Z,61.83
2018-04-12T17:40:42.899Z,59.83
2018-04-12T17:43:52.204Z,63.53
2018-04-12T17:47:01.665Z,58.40
2018-04-12T17:50:11.087Z,61.30
2018-04-12T17:53:21.176Z,61.17
2018-04-12T17:56:31.254Z,95.63
2018-04-12T17:59:41.136Z,79.13
2018-04-12T18:02:50.836Z,83.03
2018-04-12T18:06:01.037Z,79.40
2018-04-12T18:09:10.447Z,95.23
2018-04-12T18:12:20.667Z,92.07
2018-04-12T18:15:30.133Z,90.03
2018-04-12T18:18:39.827Z,87.47
2018-04-12T18:21:49.517Z,101.67
2018-04-12T18:25:01.172Z,98.03
2018-04-12T18:28:10.923Z,97.33
2018-04-12T18:31:21.188Z,105.20
2018-04-12T18:34:31.828Z,117.90
2018-04-12T18:37:41.687Z,104.00
2018-04-12T18:40:52.229Z,112.77
2018-04-12T18:44:01.599Z,115.93
2018-04-12T18:47:11.432Z,108.60
2018-04-12T18:50:22.407Z,116.80
2018-04-12T18:53:32.640Z,131.43
2018-04-12T18:56:42.180Z,111.50
2018-04-12T18:59:52.075Z,130.73
2018-04-12T19:03:01.546Z,114.63
2018-04-12T19:06:11.470Z,106.93
2018-04-12T19:09:20.799Z,141.00
2018-04-12T19:12:30.668Z,144.03
2018-04-12T19:15:40.068Z,136.33
2018-04-12T19:18:49.936Z,122.53
2018-04-12T19:22:00.325Z,117.10
2018-04-12T19:25:10.409Z,127.40
2018-04-12T19:28:19.861Z,118.57
2018-04-12T19:31:30.384Z,110.90
2018-04-12T19:34:40.422Z,110.93
2018-04-12T19:37:50.244Z,114.93
2018-04-12T19:40:59.747Z,116.10
2018-04-12T19:44:09.223Z,104.30
2018-04-12T19:47:19.451Z,174.47
2018-04-12T19:50:29.057Z,122.53
2018-04-12T19:53:38.939Z,122.77
2018-04-12T19:56:49.154Z,129.10
2018-04-12T19:59:59.281Z,136.83
2018-04-12T20:03:09.493Z,137.50
2018-04-12T20:06:19.568Z,113.37
2018-04-12T20:09:29.064Z,132.30
2018-04-12T20:12:39.028Z,129.40
2018-04-12T20:15:49.248Z,119.70
2018-04-12T20:18:59.124Z,106.73
2018-04-12T20:22:08.531Z,105.70
2018-04-12T20:25:18.416Z,118.23
2018-04-12T20:28:27.956Z,113.87
2018-04-12T20:31:37.897Z,127.67
2018-04-12T20:34:49.180Z,122.40
2018-04-12T20:37:58.620Z,129.47
2018-04-12T20:41:08.513Z,221.17
2018-04-12T20:44:17.969Z,230.13
2018-04-12T20:47:28.227Z,174.20
2018-04-12T20:50:38.397Z,251.87
2018-04-12T20:53:47.869Z,208.47
2018-04-12T20:56:58.347Z,228.67
2018-04-12T21:00:07.839Z,110.90
2018-04-12T21:03:17.395Z,132.87
2018-04-12T21:06:27.673Z,123.97
2018-04-12T21:09:37.155Z,263.20
2018-04-12T21:12:48.423Z,130.03
2018-04-12T21:15:57.831Z,253.43
2018-04-12T21:19:07.256Z,266.83
2018-04-12T21:22:17.172Z,215.17
2018-04-12T21:25:26.635Z,204.50
2018-04-12T21:28:36.232Z,198.27
2018-04-12T21:31:52.581Z,124.53
2018-04-12T21:35:03.842Z,176.60
2018-04-12T21:38:17.127Z,203.40
2018-04-12T21:41:26.560Z,172.93
2018-04-12T21:44:36.849Z,146.37
2018-04-12T21:47:46.736Z,175.53
2018-04-12T21:50:56.980Z,118.93
2018-04-12T21:54:10.656Z,131.20
2018-04-12T21:57:20.568Z,139.80
2018-04-12T22:00:29.989Z,140.07
2018-04-12T22:03:39.830Z,182.23
2018-04-12T22:06:50.099Z,170.70
2018-04-12T22:09:59.937Z,201.67
2018-04-12T22:13:09.371Z,182.30
2018-04-12T22:16:23.747Z,152.53
2018-04-12T22:19:35.256Z,219.63
2018-04-12T22:22:44.865Z,178.20
2018-04-12T22:25:54.603Z,133.53
2018-04-12T22:29:05.535Z,121.00
2018-04-12T22:32:18.917Z,112.83
2018-04-12T22:35:29.856Z,145.67
2018-04-12T22:38:40.976Z,173.67
2018-04-12T22:41:51.207Z,120.27
2018-04-12T22:45:01.185Z,148.23
2018-04-12T22:48:11.701Z,157.60
2018-04-12T22:51:21.895Z,153.40
2018-04-12T22:54:32.203Z,164.20
2018-04-12T22:57:42.451Z,148.70
2018-04-12T23:00:51.876Z,133.23
2018-04-12T23:04:04.849Z,143.73
2018-04-12T23:07:19.351Z,138.57
2018-04-12T23:10:29.232Z,130.77
2018-04-12T23:13:39.731Z,121.20
2018-04-12T23:16:52.397Z,151.70
2018-04-12T23:20:01.824Z,145.63
2018-04-12T23:23:12.151Z,146.30
2018-04-12T23:26:21.524Z,130.10
2018-04-12T23:29:31.766Z,128.80
2018-04-12T23:32:41.667Z,134.13
2018-04-12T23:35:51.508Z,133.27
2018-04-12T23:39:02.412Z,102.33
2018-04-12T23:42:12.624Z,133.10
2018-04-12T23:45:23.055Z,175.50
2018-04-12T23:48:32.939Z,149.73
2018-04-12T23:51:42.479Z,143.13
2018-04-12T23:54:53.115Z,142.53
2018-04-12T23:58:02.904Z,144.90
